sensor_id;sensor_type;location;lat;lon;timestamp;P1;durP1;ratioP1;P2;durP2;ratioP2
5878;SDS011;2965;42.640;23.370;2024-03-22T00:00:28;8.67;;;5.73;;
5878;SDS011;2965;42.640;23.370;2024-03-22T00:02:54;6.73;;;5.60;;
5878;SDS011;2965;42.640;23.370;2024-03-22T00:05:19;5.40;;;4.90;;
5878;SDS011;2965;42.640;23.370;2024-03-22T00:07:46;6.53;;;5.87;;
5878;SDS011;2965;42.640;23.370;2024-03-22T00:10:12;6.23;;;5.67;;
5878;SDS011;2965;42.640;23.370;2024-03-22T00:12:39;10.83;;;6.20;;
5878;SDS011;2965;42.640;23.370;2024-03-22T00:15:04;6.33;;;5.83;;
5878;SDS011;2965;42.640;23.370;2024-03-22T00:17:30;7.27;;;5.50;;
5878;SDS011;2965;42.640;23.370;2024-03-22T00:19:56;5.80;;;5.40;;
5878;SDS011;2965;42.640;23.370;2024-03-22T00:22:21;5.20;;;4.70;;
5878;SDS011;2965;42.640;23.370;2024-03-22T00:24:47;6.00;;;5.50;;
5878;SDS011;2965;42.640;23.370;2024-03-22T00:27:12;5.90;;;5.50;;
5878;SDS011;2965;42.640;23.370;2024-03-22T00:29:38;6.43;;;5.17;;
5878;SDS011;2965;42.640;23.370;2024-03-22T00:32:04;6.07;;;5.47;;
5878;SDS011;2965;42.640;23.370;2024-03-22T00:34:29;8.90;;;5.40;;
5878;SDS011;2965;42.640;23.370;2024-03-22T00:36:55;5.60;;;5.20;;
5878;SDS011;2965;42.640;23.370;2024-03-22T00:39:20;5.23;;;4.80;;
5878;SDS011;2965;42.640;23.370;2024-03-22T00:41:46;18.83;;;7.70;;
5878;SDS011;2965;42.640;23.370;2024-03-22T00:44:11;10.83;;;6.80;;
5878;SDS011;2965;42.640;23.370;2024-03-22T00:46:36;10.00;;;6.90;;
5878;SDS011;2965;42.640;23.370;2024-03-22T00:49:02;10.80;;;5.50;;
5878;SDS011;2965;42.640;23.370;2024-03-22T00:51:27;10.50;;;6.20;;
5878;SDS011;2965;42.640;23.370;2024-03-22T00:53:53;10.73;;;7.47;;
5878;SDS011;2965;42.640;23.370;2024-03-22T01:27:06;13.30;;;6.93;;
5878;SDS011;2965;42.640;23.370;2024-03-22T01:29:31;14.13;;;7.00;;
5878;SDS011;2965;42.640;23.370;2024-03-22T01:31:59;9.03;;;7.20;;
5878;SDS011;2965;42.640;23.370;2024-03-22T01:34:25;7.63;;;6.83;;
5878;SDS011;2965;42.640;23.370;2024-03-22T01:36:51;9.90;;;6.90;;
5878;SDS011;2965;42.640;23.370;2024-03-22T01:39:18;10.77;;;7.17;;
5878;SDS011;2965;42.640;23.370;2024-03-22T01:41:46;9.17;;;7.27;;
5878;SDS011;2965;42.640;23.370;2024-03-22T01:44:14;10.43;;;7.50;;
5878;SDS011;2965;42.640;23.370;2024-03-22T01:46:40;8.93;;;6.70;;
5878;SDS011;2965;42.640;23.370;2024-03-22T01:49:08;16.23;;;7.13;;
5878;SDS011;2965;42.640;23.370;2024-03-22T01:51:36;11.67;;;7.90;;
5878;SDS011;2965;42.640;23.370;2024-03-22T01:54:02;10.07;;;6.93;;
5878;SDS011;2965;42.640;23.370;2024-03-22T01:56:29;16.40;;;7.10;;
5878;SDS011;2965;42.640;23.370;2024-03-22T01:58:55;11.50;;;6.93;;
5878;SDS011;2965;42.640;23.370;2024-03-22T02:01:21;11.60;;;7.30;;
5878;SDS011;2965;42.640;23.370;2024-03-22T02:03:47;11.33;;;6.80;;
5878;SDS011;2965;42.640;23.370;2024-03-22T02:06:12;10.07;;;6.80;;
5878;SDS011;2965;42.640;23.370;2024-03-22T02:08:38;16.50;;;6.90;;
5878;SDS011;2965;42.640;23.370;2024-03-22T02:41:51;9.70;;;6.70;;
5878;SDS011;2965;42.640;23.370;2024-03-22T02:44:16;7.90;;;6.13;;
5878;SDS011;2965;42.640;23.370;2024-03-22T02:46:42;7.07;;;6.50;;
5878;SDS011;2965;42.640;23.370;2024-03-22T02:49:07;11.80;;;7.70;;
5878;SDS011;2965;42.640;23.370;2024-03-22T02:51:33;7.40;;;6.63;;
5878;SDS011;2965;42.640;23.370;2024-03-22T02:53:58;14.03;;;7.53;;
5878;SDS011;2965;42.640;23.370;2024-03-22T03:27:10;12.30;;;9.27;;
5878;SDS011;2965;42.640;23.370;2024-03-22T03:29:36;11.80;;;8.30;;
5878;SDS011;2965;42.640;23.370;2024-03-22T03:32:01;14.90;;;9.10;;
5878;SDS011;2965;42.640;23.370;2024-03-22T03:34:26;13.23;;;8.37;;
5878;SDS011;2965;42.640;23.370;2024-03-22T03:36:52;13.30;;;8.97;;
5878;SDS011;2965;42.640;23.370;2024-03-22T03:39:18;22.87;;;8.20;;
5878;SDS011;2965;42.640;23.370;2024-03-22T03:41:44;10.20;;;8.00;;
5878;SDS011;2965;42.640;23.370;2024-03-22T03:44:10;8.97;;;7.00;;
5878;SDS011;2965;42.640;23.370;2024-03-22T03:46:35;11.00;;;7.50;;
5878;SDS011;2965;42.640;23.370;2024-03-22T03:49:01;11.87;;;7.93;;
5878;SDS011;2965;42.640;23.370;2024-03-22T03:51:26;8.30;;;6.57;;
5878;SDS011;2965;42.640;23.370;2024-03-22T03:53:52;11.23;;;7.20;;
5878;SDS011;2965;42.640;23.370;2024-03-22T03:56:17;7.03;;;6.33;;
5878;SDS011;2965;42.640;23.370;2024-03-22T03:58:42;9.87;;;7.63;;
5878;SDS011;2965;42.640;23.370;2024-03-22T04:01:10;11.00;;;7.47;;
5878;SDS011;2965;42.640;23.370;2024-03-22T04:03:35;17.47;;;8.20;;
5878;SDS011;2965;42.640;23.370;2024-03-22T04:06:03;8.90;;;7.30;;
5878;SDS011;2965;42.640;23.370;2024-03-22T04:08:28;10.47;;;7.13;;
5878;SDS011;2965;42.640;23.370;2024-03-22T04:10:56;12.70;;;7.47;;
5878;SDS011;2965;42.640;23.370;2024-03-22T04:13:25;8.40;;;6.80;;
5878;SDS011;2965;42.640;23.370;2024-03-22T04:15:51;8.63;;;7.10;;
5878;SDS011;2965;42.640;23.370;2024-03-22T04:18:17;7.70;;;6.67;;
5878;SDS011;2965;42.640;23.370;2024-03-22T04:20:42;7.10;;;6.50;;
5878;SDS011;2965;42.640;23.370;2024-03-22T04:23:09;18.13;;;7.13;;
5878;SDS011;2965;42.640;23.370;2024-03-22T04:25:34;10.40;;;7.00;;
5878;SDS011;2965;42.640;23.370;2024-03-22T04:28:00;8.10;;;6.80;;
5878;SDS011;2965;42.640;23.370;2024-03-22T04:30:25;8.13;;;6.80;;
5878;SDS011;2965;42.640;23.370;2024-03-22T04:32:50;12.23;;;7.77;;
5878;SDS011;2965;42.640;23.370;2024-03-22T04:35:16;11.33;;;6.83;;
5878;SDS011;2965;42.640;23.370;2024-03-22T04:37:42;18.13;;;7.20;;
5878;SDS011;2965;42.640;23.370;2024-03-22T04:40:08;9.83;;;7.10;;
5878;SDS011;2965;42.640;23.370;2024-03-22T04:42:35;12.97;;;7.70;;
5878;SDS011;2965;42.640;23.370;2024-03-22T04:45:00;13.20;;;7.17;;
5878;SDS011;2965;42.640;23.370;2024-03-22T04:47:25;8.33;;;7.53;;
5878;SDS011;2965;42.640;23.370;2024-03-22T04:49:51;6.80;;;6.10;;
5878;SDS011;2965;42.640;23.370;2024-03-22T04:52:17;16.20;;;7.87;;
5878;SDS011;2965;42.640;23.370;2024-03-22T04:54:42;15.20;;;7.00;;
5878;SDS011;2965;42.640;23.370;2024-03-22T04:57:08;9.80;;;7.97;;
5878;SDS011;2965;42.640;23.370;2024-03-22T04:59:33;12.60;;;7.73;;
5878;SDS011;2965;42.640;23.370;2024-03-22T05:01:59;10.90;;;7.50;;
5878;SDS011;2965;42.640;23.370;2024-03-22T05:04:24;12.10;;;7.70;;
5878;SDS011;2965;42.640;23.370;2024-03-22T05:06:49;7.73;;;6.43;;
5878;SDS011;2965;42.640;23.370;2024-03-22T05:09:15;19.90;;;7.40;;
5878;SDS011;2965;42.640;23.370;2024-03-22T05:11:40;15.20;;;8.60;;
5878;SDS011;2965;42.640;23.370;2024-03-22T05:14:06;11.70;;;8.23;;
5878;SDS011;2965;42.640;23.370;2024-03-22T05:47:33;18.90;;;9.60;;
5878;SDS011;2965;42.640;23.370;2024-03-22T05:49:59;14.07;;;9.80;;
5878;SDS011;2965;42.640;23.370;2024-03-22T05:52:25;25.43;;;10.00;;
5878;SDS011;2965;42.640;23.370;2024-03-22T05:54:50;14.40;;;9.93;;
5878;SDS011;2965;42.640;23.370;2024-03-22T05:57:16;18.33;;;9.07;;
5878;SDS011;2965;42.640;23.370;2024-03-22T05:59:41;13.73;;;9.67;;
5878;SDS011;2965;42.640;23.370;2024-03-22T06:02:07;18.87;;;9.50;;
5878;SDS011;2965;42.640;23.370;2024-03-22T06:04:33;17.07;;;9.30;;
5878;SDS011;2965;42.640;23.370;2024-03-22T06:06:59;15.50;;;9.47;;
5878;SDS011;2965;42.640;23.370;2024-03-22T06:09:28;17.13;;;9.53;;
5878;SDS011;2965;42.640;23.370;2024-03-22T06:12:05;13.43;;;9.97;;
5878;SDS011;2965;42.640;23.370;2024-03-22T06:14:31;29.43;;;10.90;;
5878;SDS011;2965;42.640;23.370;2024-03-22T06:16:56;20.60;;;10.77;;
5878;SDS011;2965;42.640;23.370;2024-03-22T06:19:22;17.90;;;10.03;;
5878;SDS011;2965;42.640;23.370;2024-03-22T06:21:48;15.10;;;9.80;;
5878;SDS011;2965;42.640;23.370;2024-03-22T06:24:14;15.27;;;10.60;;
5878;SDS011;2965;42.640;23.370;2024-03-22T06:26:39;20.43;;;9.60;;
5878;SDS011;2965;42.640;23.370;2024-03-22T06:29:04;22.20;;;10.63;;
5878;SDS011;2965;42.640;23.370;2024-03-22T06:31:30;18.47;;;11.37;;
5878;SDS011;2965;42.640;23.370;2024-03-22T06:33:56;18.10;;;9.30;;
5878;SDS011;2965;42.640;23.370;2024-03-22T06:36:27;14.27;;;9.50;;
5878;SDS011;2965;42.640;23.370;2024-03-22T06:38:57;18.53;;;10.73;;
5878;SDS011;2965;42.640;23.370;2024-03-22T06:41:22;13.67;;;9.20;;
5878;SDS011;2965;42.640;23.370;2024-03-22T06:43:48;23.27;;;10.10;;
5878;SDS011;2965;42.640;23.370;2024-03-22T06:46:13;21.43;;;9.77;;
5878;SDS011;2965;42.640;23.370;2024-03-22T06:48:39;17.33;;;10.23;;
5878;SDS011;2965;42.640;23.370;2024-03-22T06:51:04;25.47;;;10.87;;
5878;SDS011;2965;42.640;23.370;2024-03-22T06:53:30;35.07;;;9.80;;
5878;SDS011;2965;42.640;23.370;2024-03-22T06:55:55;13.20;;;9.03;;
5878;SDS011;2965;42.640;23.370;2024-03-22T06:58:21;20.83;;;10.00;;
5878;SDS011;2965;42.640;23.370;2024-03-22T07:00:46;15.13;;;9.30;;
5878;SDS011;2965;42.640;23.370;2024-03-22T07:03:11;15.90;;;8.17;;
5878;SDS011;2965;42.640;23.370;2024-03-22T07:05:37;16.53;;;10.67;;
5878;SDS011;2965;42.640;23.370;2024-03-22T07:08:02;22.37;;;10.43;;
5878;SDS011;2965;42.640;23.370;2024-03-22T07:10:28;13.33;;;9.33;;
5878;SDS011;2965;42.640;23.370;2024-03-22T07:12:56;20.03;;;11.53;;
5878;SDS011;2965;42.640;23.370;2024-03-22T07:15:24;16.20;;;10.73;;
5878;SDS011;2965;42.640;23.370;2024-03-22T07:17:51;16.87;;;10.70;;
5878;SDS011;2965;42.640;23.370;2024-03-22T07:20:17;16.43;;;10.23;;
5878;SDS011;2965;42.640;23.370;2024-03-22T07:22:43;17.90;;;9.97;;
5878;SDS011;2965;42.640;23.370;2024-03-22T07:25:08;14.83;;;10.70;;
5878;SDS011;2965;42.640;23.370;2024-03-22T07:27:36;20.57;;;9.90;;
5878;SDS011;2965;42.640;23.370;2024-03-22T07:30:02;16.20;;;10.05;;
5878;SDS011;2965;42.640;23.370;2024-03-22T07:32:29;14.40;;;8.00;;
5878;SDS011;2965;42.640;23.370;2024-03-22T07:34:55;23.17;;;9.50;;
5878;SDS011;2965;42.640;23.370;2024-03-22T07:37:20;7.87;;;6.53;;
5878;SDS011;2965;42.640;23.370;2024-03-22T07:39:46;11.60;;;6.97;;
5878;SDS011;2965;42.640;23.370;2024-03-22T07:42:12;12.47;;;7.53;;
5878;SDS011;2965;42.640;23.370;2024-03-22T07:44:37;23.53;;;10.27;;
5878;SDS011;2965;42.640;23.370;2024-03-22T08:17:31;10.83;;;6.10;;
5878;SDS011;2965;42.640;23.370;2024-03-22T08:19:56;10.57;;;6.70;;
5878;SDS011;2965;42.640;23.370;2024-03-22T08:22:21;8.33;;;6.43;;
5878;SDS011;2965;42.640;23.370;2024-03-22T08:24:47;7.93;;;6.50;;
5878;SDS011;2965;42.640;23.370;2024-03-22T08:27:13;7.50;;;6.60;;
5878;SDS011;2965;42.640;23.370;2024-03-22T08:29:39;10.70;;;6.30;;
5878;SDS011;2965;42.640;23.370;2024-03-22T09:02:54;11.03;;;5.63;;
5878;SDS011;2965;42.640;23.370;2024-03-22T09:05:20;5.90;;;5.37;;
5878;SDS011;2965;42.640;23.370;2024-03-22T09:07:45;8.03;;;4.90;;
5878;SDS011;2965;42.640;23.370;2024-03-22T09:10:11;4.90;;;4.50;;
5878;SDS011;2965;42.640;23.370;2024-03-22T09:12:36;7.33;;;5.50;;
5878;SDS011;2965;42.640;23.370;2024-03-22T09:15:02;15.07;;;6.60;;
5878;SDS011;2965;42.640;23.370;2024-03-22T09:17:28;5.70;;;5.17;;
5878;SDS011;2965;42.640;23.370;2024-03-22T09:19:54;5.90;;;5.40;;
5878;SDS011;2965;42.640;23.370;2024-03-22T09:22:20;6.07;;;5.57;;
5878;SDS011;2965;42.640;23.370;2024-03-22T09:24:45;8.53;;;5.20;;
5878;SDS011;2965;42.640;23.370;2024-03-22T09:27:11;4.60;;;4.40;;
5878;SDS011;2965;42.640;23.370;2024-03-22T09:29:36;5.60;;;5.07;;
5878;SDS011;2965;42.640;23.370;2024-03-22T09:32:02;8.90;;;4.80;;
5878;SDS011;2965;42.640;23.370;2024-03-22T09:34:28;4.97;;;4.53;;
5878;SDS011;2965;42.640;23.370;2024-03-22T09:36:57;4.70;;;4.40;;
5878;SDS011;2965;42.640;23.370;2024-03-22T09:39:22;4.77;;;4.57;;
5878;SDS011;2965;42.640;23.370;2024-03-22T09:41:48;5.10;;;4.60;;
5878;SDS011;2965;42.640;23.370;2024-03-22T09:44:17;14.40;;;5.63;;
5878;SDS011;2965;42.640;23.370;2024-03-22T10:17:33;5.00;;;4.70;;
5878;SDS011;2965;42.640;23.370;2024-03-22T10:19:59;5.27;;;4.97;;
5878;SDS011;2965;42.640;23.370;2024-03-22T10:22:25;5.20;;;4.53;;
5878;SDS011;2965;42.640;23.370;2024-03-22T10:24:58;8.70;;;5.43;;
5878;SDS011;2965;42.640;23.370;2024-03-22T10:27:26;4.87;;;4.57;;
5878;SDS011;2965;42.640;23.370;2024-03-22T10:29:54;10.13;;;4.60;;
5878;SDS011;2965;42.640;23.370;2024-03-22T10:32:19;5.80;;;5.23;;
5878;SDS011;2965;42.640;23.370;2024-03-22T10:34:46;5.33;;;4.93;;
5878;SDS011;2965;42.640;23.370;2024-03-22T10:37:12;4.77;;;4.47;;
5878;SDS011;2965;42.640;23.370;2024-03-22T10:39:40;11.37;;;5.83;;
5878;SDS011;2965;42.640;23.370;2024-03-22T10:42:08;5.30;;;4.90;;
5878;SDS011;2965;42.640;23.370;2024-03-22T10:44:33;6.23;;;4.80;;
5878;SDS011;2965;42.640;23.370;2024-03-22T10:46:59;5.00;;;4.50;;
5878;SDS011;2965;42.640;23.370;2024-03-22T10:49:28;6.80;;;6.20;;
5878;SDS011;2965;42.640;23.370;2024-03-22T10:51:57;7.33;;;5.07;;
5878;SDS011;2965;42.640;23.370;2024-03-22T10:54:26;5.40;;;5.00;;
5878;SDS011;2965;42.640;23.370;2024-03-22T10:56:56;4.63;;;4.23;;
5878;SDS011;2965;42.640;23.370;2024-03-22T10:59:22;5.30;;;4.47;;
5878;SDS011;2965;42.640;23.370;2024-03-22T11:01:51;4.63;;;4.23;;
5878;SDS011;2965;42.640;23.370;2024-03-22T11:04:17;7.70;;;4.60;;
5878;SDS011;2965;42.640;23.370;2024-03-22T11:06:47;5.60;;;4.20;;
5878;SDS011;2965;42.640;23.370;2024-03-22T11:09:26;4.67;;;4.33;;
5878;SDS011;2965;42.640;23.370;2024-03-22T11:11:52;4.60;;;4.40;;
5878;SDS011;2965;42.640;23.370;2024-03-22T11:14:19;4.50;;;4.30;;
5878;SDS011;2965;42.640;23.370;2024-03-22T11:16:51;6.50;;;5.83;;
5878;SDS011;2965;42.640;23.370;2024-03-22T11:19:17;4.43;;;4.13;;
5878;SDS011;2965;42.640;23.370;2024-03-22T11:21:43;4.47;;;4.23;;
5878;SDS011;2965;42.640;23.370;2024-03-22T11:24:08;4.23;;;3.97;;
5878;SDS011;2965;42.640;23.370;2024-03-22T11:26:35;5.57;;;5.07;;
5878;SDS011;2965;42.640;23.370;2024-03-22T11:29:00;5.17;;;4.73;;
5878;SDS011;2965;42.640;23.370;2024-03-22T11:31:26;5.53;;;5.10;;
5878;SDS011;2965;42.640;23.370;2024-03-22T11:33:53;5.30;;;5.07;;
5878;SDS011;2965;42.640;23.370;2024-03-22T11:36:19;5.70;;;5.20;;
5878;SDS011;2965;42.640;23.370;2024-03-22T11:38:44;5.43;;;4.93;;
5878;SDS011;2965;42.640;23.370;2024-03-22T11:41:10;7.83;;;4.93;;
5878;SDS011;2965;42.640;23.370;2024-03-22T11:43:37;4.73;;;4.33;;
5878;SDS011;2965;42.640;23.370;2024-03-22T11:46:02;6.00;;;5.50;;
5878;SDS011;2965;42.640;23.370;2024-03-22T11:48:28;6.40;;;5.80;;
5878;SDS011;2965;42.640;23.370;2024-03-22T11:50:53;6.37;;;5.70;;
5878;SDS011;2965;42.640;23.370;2024-03-22T11:53:20;6.30;;;5.77;;
5878;SDS011;2965;42.640;23.370;2024-03-22T11:55:46;6.03;;;5.33;;
5878;SDS011;2965;42.640;23.370;2024-03-22T11:58:14;8.00;;;4.80;;
5878;SDS011;2965;42.640;23.370;2024-03-22T12:00:39;7.00;;;5.43;;
5878;SDS011;2965;42.640;23.370;2024-03-22T12:03:04;5.27;;;4.87;;
5878;SDS011;2965;42.640;23.370;2024-03-22T12:05:33;6.73;;;4.73;;
5878;SDS011;2965;42.640;23.370;2024-03-22T12:07:58;5.40;;;4.90;;
5878;SDS011;2965;42.640;23.370;2024-03-22T12:10:24;5.30;;;4.90;;
5878;SDS011;2965;42.640;23.370;2024-03-22T12:12:49;5.57;;;5.27;;
5878;SDS011;2965;42.640;23.370;2024-03-22T12:15:14;5.47;;;4.97;;
5878;SDS011;2965;42.640;23.370;2024-03-22T12:17:40;6.23;;;4.73;;
5878;SDS011;2965;42.640;23.370;2024-03-22T12:20:08;5.07;;;4.70;;
5878;SDS011;2965;42.640;23.370;2024-03-22T12:22:35;6.90;;;4.57;;
5878;SDS011;2965;42.640;23.370;2024-03-22T12:25:00;4.63;;;4.20;;
5878;SDS011;2965;42.640;23.370;2024-03-22T12:27:27;4.93;;;4.70;;
5878;SDS011;2965;42.640;23.370;2024-03-22T12:29:53;4.90;;;4.63;;
5878;SDS011;2965;42.640;23.370;2024-03-22T12:32:19;4.70;;;4.30;;
5878;SDS011;2965;42.640;23.370;2024-03-22T12:34:44;4.43;;;4.23;;
5878;SDS011;2965;42.640;23.370;2024-03-22T13:05:37;4.20;;;3.80;;
5878;SDS011;2965;42.640;23.370;2024-03-22T13:08:02;4.20;;;4.00;;
5878;SDS011;2965;42.640;23.370;2024-03-22T13:10:28;4.50;;;4.20;;
5878;SDS011;2965;42.640;23.370;2024-03-22T13:12:53;5.27;;;4.87;;
5878;SDS011;2965;42.640;23.370;2024-03-22T13:15:19;4.47;;;4.27;;
5878;SDS011;2965;42.640;23.370;2024-03-22T13:17:44;4.10;;;3.80;;
5878;SDS011;2965;42.640;23.370;2024-03-22T13:20:10;5.20;;;4.80;;
5878;SDS011;2965;42.640;23.370;2024-03-22T13:22:37;9.50;;;4.27;;
5878;SDS011;2965;42.640;23.370;2024-03-22T13:25:03;4.43;;;4.13;;
5878;SDS011;2965;42.640;23.370;2024-03-22T13:27:32;4.30;;;4.00;;
5878;SDS011;2965;42.640;23.370;2024-03-22T13:29:59;5.27;;;4.97;;
5878;SDS011;2965;42.640;23.370;2024-03-22T13:32:24;4.67;;;4.47;;
5878;SDS011;2965;42.640;23.370;2024-03-22T13:34:50;4.43;;;4.13;;
5878;SDS011;2965;42.640;23.370;2024-03-22T13:37:15;5.00;;;4.60;;
5878;SDS011;2965;42.640;23.370;2024-03-22T13:39:41;5.90;;;5.43;;
5878;SDS011;2965;42.640;23.370;2024-03-22T13:42:06;4.20;;;3.90;;
5878;SDS011;2965;42.640;23.370;2024-03-22T13:44:32;4.77;;;4.53;;
5878;SDS011;2965;42.640;23.370;2024-03-22T13:46:58;4.37;;;4.13;;
5878;SDS011;2965;42.640;23.370;2024-03-22T13:49:23;4.97;;;4.57;;
5878;SDS011;2965;42.640;23.370;2024-03-22T13:51:49;4.27;;;4.07;;
5878;SDS011;2965;42.640;23.370;2024-03-22T13:54:15;13.30;;;4.40;;
5878;SDS011;2965;42.640;23.370;2024-03-22T13:56:40;4.70;;;4.40;;
5878;SDS011;2965;42.640;23.370;2024-03-22T13:59:06;4.60;;;4.40;;
5878;SDS011;2965;42.640;23.370;2024-03-22T14:01:33;5.20;;;4.73;;
5878;SDS011;2965;42.640;23.370;2024-03-22T14:04:01;18.00;;;9.53;;
5878;SDS011;2965;42.640;23.370;2024-03-22T14:06:28;8.10;;;6.50;;
5878;SDS011;2965;42.640;23.370;2024-03-22T14:08:55;5.73;;;5.30;;
5878;SDS011;2965;42.640;23.370;2024-03-22T14:11:25;5.30;;;4.90;;
5878;SDS011;2965;42.640;23.370;2024-03-22T14:13:50;5.33;;;5.00;;
5878;SDS011;2965;42.640;23.370;2024-03-22T14:16:16;10.63;;;6.47;;
5878;SDS011;2965;42.640;23.370;2024-03-22T14:18:42;10.23;;;8.47;;
5878;SDS011;2965;42.640;23.370;2024-03-22T14:21:07;5.43;;;4.93;;
5878;SDS011;2965;42.640;23.370;2024-03-22T14:23:32;9.00;;;5.20;;
5878;SDS011;2965;42.640;23.370;2024-03-22T14:25:58;11.17;;;5.23;;
5878;SDS011;2965;42.640;23.370;2024-03-22T14:28:23;6.47;;;4.70;;
5878;SDS011;2965;42.640;23.370;2024-03-22T14:30:48;5.87;;;5.47;;
5878;SDS011;2965;42.640;23.370;2024-03-22T14:33:14;8.60;;;6.87;;
5878;SDS011;2965;42.640;23.370;2024-03-22T14:35:39;11.73;;;7.97;;
5878;SDS011;2965;42.640;23.370;2024-03-22T14:38:05;4.93;;;4.53;;
5878;SDS011;2965;42.640;23.370;2024-03-22T15:11:16;4.80;;;4.50;;
5878;SDS011;2965;42.640;23.370;2024-03-22T15:13:42;6.40;;;5.83;;
5878;SDS011;2965;42.640;23.370;2024-03-22T15:16:07;7.30;;;6.57;;
5878;SDS011;2965;42.640;23.370;2024-03-22T15:18:33;7.13;;;6.50;;
5878;SDS011;2965;42.640;23.370;2024-03-22T15:20:58;10.73;;;6.07;;
5878;SDS011;2965;42.640;23.370;2024-03-22T15:23:23;11.03;;;5.47;;
5878;SDS011;2965;42.640;23.370;2024-03-22T15:25:49;4.33;;;4.03;;
5878;SDS011;2965;42.640;23.370;2024-03-22T15:28:14;5.87;;;5.37;;
5878;SDS011;2965;42.640;23.370;2024-03-22T15:30:40;5.53;;;5.23;;
5878;SDS011;2965;42.640;23.370;2024-03-22T15:33:07;8.27;;;5.87;;
5878;SDS011;2965;42.640;23.370;2024-03-22T15:35:34;7.37;;;6.77;;
5878;SDS011;2965;42.640;23.370;2024-03-22T15:38:00;6.90;;;5.67;;
5878;SDS011;2965;42.640;23.370;2024-03-22T15:40:28;12.67;;;6.43;;
5878;SDS011;2965;42.640;23.370;2024-03-22T15:42:53;7.50;;;6.77;;
5878;SDS011;2965;42.640;23.370;2024-03-22T15:45:19;12.13;;;7.90;;
5878;SDS011;2965;42.640;23.370;2024-03-22T15:47:44;16.23;;;8.07;;
5878;SDS011;2965;42.640;23.370;2024-03-22T15:50:10;19.77;;;9.63;;
5878;SDS011;2965;42.640;23.370;2024-03-22T15:52:36;17.50;;;11.40;;
5878;SDS011;2965;42.640;23.370;2024-03-22T15:55:02;12.67;;;8.63;;
5878;SDS011;2965;42.640;23.370;2024-03-22T15:57:27;14.67;;;8.30;;
5878;SDS011;2965;42.640;23.370;2024-03-22T15:59:53;12.73;;;8.30;;
5878;SDS011;2965;42.640;23.370;2024-03-22T16:02:19;15.50;;;8.10;;
5878;SDS011;2965;42.640;23.370;2024-03-22T16:04:44;14.30;;;10.60;;
5878;SDS011;2965;42.640;23.370;2024-03-22T16:07:10;12.93;;;9.30;;
5878;SDS011;2965;42.640;23.370;2024-03-22T16:09:36;26.87;;;13.57;;
5878;SDS011;2965;42.640;23.370;2024-03-22T16:12:05;24.10;;;15.60;;
5878;SDS011;2965;42.640;23.370;2024-03-22T16:14:31;38.10;;;18.20;;
5878;SDS011;2965;42.640;23.370;2024-03-22T16:16:57;37.83;;;18.40;;
5878;SDS011;2965;42.640;23.370;2024-03-22T16:19:22;32.23;;;17.83;;
5878;SDS011;2965;42.640;23.370;2024-03-22T16:21:47;43.20;;;22.33;;
5878;SDS011;2965;42.640;23.370;2024-03-22T16:24:14;55.63;;;28.00;;
5878;SDS011;2965;42.640;23.370;2024-03-22T16:26:45;60.43;;;25.43;;
5878;SDS011;2965;42.640;23.370;2024-03-22T16:29:11;51.80;;;27.53;;
5878;SDS011;2965;42.640;23.370;2024-03-22T16:31:39;60.67;;;27.80;;
5878;SDS011;2965;42.640;23.370;2024-03-22T16:34:08;61.00;;;24.80;;
5878;SDS011;2965;42.640;23.370;2024-03-22T16:36:33;44.80;;;23.07;;
5878;SDS011;2965;42.640;23.370;2024-03-22T16:38:59;33.20;;;16.73;;
5878;SDS011;2965;42.640;23.370;2024-03-22T17:12:18;9.73;;;6.90;;
5878;SDS011;2965;42.640;23.370;2024-03-22T17:14:43;13.93;;;6.70;;
5878;SDS011;2965;42.640;23.370;2024-03-22T17:17:09;12.10;;;6.20;;
5878;SDS011;2965;42.640;23.370;2024-03-22T17:19:34;6.57;;;5.73;;
5878;SDS011;2965;42.640;23.370;2024-03-22T17:21:59;16.10;;;6.53;;
5878;SDS011;2965;42.640;23.370;2024-03-22T17:24:25;10.97;;;6.97;;
5878;SDS011;2965;42.640;23.370;2024-03-22T17:57:55;37.97;;;13.77;;
5878;SDS011;2965;42.640;23.370;2024-03-22T18:00:21;26.50;;;12.60;;
5878;SDS011;2965;42.640;23.370;2024-03-22T18:02:48;32.17;;;12.40;;
5878;SDS011;2965;42.640;23.370;2024-03-22T18:05:13;17.80;;;11.70;;
5878;SDS011;2965;42.640;23.370;2024-03-22T18:07:39;16.80;;;9.73;;
5878;SDS011;2965;42.640;23.370;2024-03-22T18:10:05;15.80;;;9.63;;
5878;SDS011;2965;42.640;23.370;2024-03-22T18:12:31;14.50;;;9.33;;
5878;SDS011;2965;42.640;23.370;2024-03-22T18:14:56;18.13;;;7.50;;
5878;SDS011;2965;42.640;23.370;2024-03-22T18:17:22;17.87;;;7.47;;
5878;SDS011;2965;42.640;23.370;2024-03-22T18:19:51;9.13;;;7.33;;
5878;SDS011;2965;42.640;23.370;2024-03-22T18:22:18;8.67;;;6.50;;
5878;SDS011;2965;42.640;23.370;2024-03-22T18:24:43;9.63;;;6.77;;
5878;SDS011;2965;42.640;23.370;2024-03-22T18:27:09;10.43;;;7.43;;
5878;SDS011;2965;42.640;23.370;2024-03-22T18:29:36;7.20;;;6.50;;
5878;SDS011;2965;42.640;23.370;2024-03-22T18:32:03;9.10;;;6.37;;
5878;SDS011;2965;42.640;23.370;2024-03-22T18:34:30;8.00;;;6.20;;
5878;SDS011;2965;42.640;23.370;2024-03-22T18:36:56;10.63;;;7.30;;
5878;SDS011;2965;42.640;23.370;2024-03-22T18:39:22;14.40;;;6.90;;
5878;SDS011;2965;42.640;23.370;2024-03-22T18:41:48;10.93;;;6.50;;
5878;SDS011;2965;42.640;23.370;2024-03-22T18:44:14;11.30;;;6.80;;
5878;SDS011;2965;42.640;23.370;2024-03-22T18:46:39;9.33;;;8.40;;
5878;SDS011;2965;42.640;23.370;2024-03-22T18:49:07;8.23;;;7.10;;
5878;SDS011;2965;42.640;23.370;2024-03-22T18:51:33;10.07;;;7.50;;
5878;SDS011;2965;42.640;23.370;2024-03-22T18:53:59;10.97;;;8.37;;
5878;SDS011;2965;42.640;23.370;2024-03-22T18:56:24;14.53;;;8.43;;
5878;SDS011;2965;42.640;23.370;2024-03-22T18:58:50;8.90;;;8.00;;
5878;SDS011;2965;42.640;23.370;2024-03-22T19:01:16;12.40;;;8.33;;
5878;SDS011;2965;42.640;23.370;2024-03-22T19:03:41;11.90;;;8.90;;
5878;SDS011;2965;42.640;23.370;2024-03-22T19:06:07;13.10;;;9.90;;
5878;SDS011;2965;42.640;23.370;2024-03-22T19:08:32;19.80;;;10.50;;
5878;SDS011;2965;42.640;23.370;2024-03-22T19:10:58;33.07;;;13.50;;
5878;SDS011;2965;42.640;23.370;2024-03-22T19:13:23;26.97;;;14.93;;
5878;SDS011;2965;42.640;23.370;2024-03-22T19:15:52;29.70;;;17.33;;
5878;SDS011;2965;42.640;23.370;2024-03-22T19:18:21;37.80;;;14.43;;
5878;SDS011;2965;42.640;23.370;2024-03-22T19:20:49;26.43;;;15.17;;
5878;SDS011;2965;42.640;23.370;2024-03-22T19:23:14;26.53;;;13.90;;
5878;SDS011;2965;42.640;23.370;2024-03-22T19:25:40;21.00;;;12.93;;
5878;SDS011;2965;42.640;23.370;2024-03-22T19:28:05;21.53;;;11.90;;
5878;SDS011;2965;42.640;23.370;2024-03-22T19:30:34;20.97;;;11.93;;
5878;SDS011;2965;42.640;23.370;2024-03-22T19:33:03;21.30;;;11.97;;
5878;SDS011;2965;42.640;23.370;2024-03-22T19:35:30;15.20;;;10.03;;
5878;SDS011;2965;42.640;23.370;2024-03-22T19:37:56;15.13;;;9.77;;
5878;SDS011;2965;42.640;23.370;2024-03-22T19:40:21;22.63;;;9.97;;
5878;SDS011;2965;42.640;23.370;2024-03-22T19:42:47;20.30;;;9.87;;
5878;SDS011;2965;42.640;23.370;2024-03-22T19:45:12;16.13;;;9.73;;
5878;SDS011;2965;42.640;23.370;2024-03-22T19:47:38;20.07;;;9.93;;
5878;SDS011;2965;42.640;23.370;2024-03-22T19:50:03;20.33;;;10.13;;
5878;SDS011;2965;42.640;23.370;2024-03-22T19:52:29;11.90;;;9.20;;
5878;SDS011;2965;42.640;23.370;2024-03-22T19:54:54;15.70;;;9.97;;
5878;SDS011;2965;42.640;23.370;2024-03-22T19:57:20;17.90;;;9.80;;
5878;SDS011;2965;42.640;23.370;2024-03-22T19:59:45;18.30;;;10.10;;
5878;SDS011;2965;42.640;23.370;2024-03-22T20:02:12;12.33;;;8.73;;
5878;SDS011;2965;42.640;23.370;2024-03-22T20:04:38;23.53;;;9.27;;
5878;SDS011;2965;42.640;23.370;2024-03-22T20:07:04;20.20;;;10.27;;
5878;SDS011;2965;42.640;23.370;2024-03-22T20:09:31;16.20;;;8.40;;
5878;SDS011;2965;42.640;23.370;2024-03-22T20:11:57;18.33;;;9.30;;
5878;SDS011;2965;42.640;23.370;2024-03-22T20:14:23;15.33;;;8.90;;
5878;SDS011;2965;42.640;23.370;2024-03-22T20:16:48;13.03;;;8.70;;
5878;SDS011;2965;42.640;23.370;2024-03-22T20:19:14;11.67;;;9.00;;
5878;SDS011;2965;42.640;23.370;2024-03-22T20:21:39;13.77;;;9.40;;